Valkenburg, Nederland

3:54 PM CET op 26 november 2014 (GMT +0100)
Zusterhof Leiden | Change Station
CLOSE
Current Station
Persoonlijk weerstation
Location: Leiden, ZH
Geometrische hoogte: 0 ft
Nabije weerstations

Hoogte 0 ft 52.15 °N, 4.49 °E | Updated 9 minutes ago

Overcast
Geheel bewolkt
43.7 °F
Voelt als 44 °F
N
1.6
Wind Variabel Wind van NO
Gusts 3.1 mijl/u

Vandaag
Hoog -- | Laag -- °F
--% Kans op neerslag
Gisteren
Hoog -- | Laag -- °F
Precip. -- inches
8:21 AM 4:37 PM
Wassende halvemaan, 20% visible
Druk 29.89 inches
Zicht 5.6 mijlen
Wolken Geheel bewolkt 1900 ft
Gevoelstemperatuur 44 °F
Dauwpunt 40 °F
Vochtigheid 85%
Neerslag 0.00 inches
Dikte sneeuw Niet beschikbaar.
UV 0 van de 12
Pollen Niet beschikbaar.
Luchtkwaliteit Niet beschikbaar.
Flu Activity Niet beschikbaar.
METAR EHRD 261425Z AUTO 11009KT 070V140 9000 OVC019 06/03 Q1012 NOSIG

More Conditions Fewer Conditions

Druk 29.89 inches
Zicht 5.6 mijlen
Wolken Geheel bewolkt 1900 ft
Gevoelstemperatuur 44 °F
Dauwpunt 40 °F
Vochtigheid 85%
Neerslag 0.00 inches
Dikte sneeuw Niet beschikbaar.
UV 0 van de 12
Pollen Niet beschikbaar.
Luchtkwaliteit Niet beschikbaar.
Flu Activity Niet beschikbaar.
METAR EHRD 261425Z AUTO 11009KT 070V140 9000 OVC019 06/03 Q1012 NOSIG

More Conditions Fewer Conditions

10-Day Weather Forecast

Almanac

Astronomie

Nov. 26, 2014 Opkomst Ondergang
Werkelijke tijd
Burgerlijke schemering
Nautische schemering
Astronomische schemering
Maan
Golflengte van het zichtbare licht
Daglengte
Tomorrow will be .
, % of the Moon is Illuminated

Extremen vandaag

Country Highs Country Lows

Community

WunderPhotos

Upload Photos

1,773,756 foto’s ge-upload!

WunderBlogs® & News

Nearby

Luchtkwaliteit

  Luchtkwaliteit LK-index Verontreinigende stof
Not available.

Dikte sneeuw

Station Depth Geometrische hoogte

Aardbevingen

Stad Distance Mag. Time & Date
Minimum magnitude displayed is 2.5.

Watertemperatuur langs de kust

Plaats Temperatuur

Nabije weerstations